Topsfield, Massachusetts
Current Conditions -  °F | °C
As of 5:21 PM on Saturday 20 Dec 2014 (Local Time) from KBVY Reporting Station
Light Snow Light Snow  
Wind Chill: 25°   Ceiling: 2200
Heat Index: 32°   Visibility: 2mi
Dew Point: 28°   Wind: 8mph
Humidity: 85%   Direction: 10°N
Pressure: 30.28"   Gusts: NA
Location:  42.64°N, 70.95°W
Report Text: KBVY 202221Z 01007KT 2SM -SN BR BKN022 BKN029 OVC036 00/M02 A3028 RMK AO2 SNE2155B14 P0000 T00001022
Loading
Personal Weather Stations






























Interactive Weather Map New forecast layout! Learn more

10-Day Weather Forecast

Advertisements
Track Severe Weather on mobile